avis per tempestes more information blitzortung!


avis per Pluja more information rain snow radar


Visita la nostra xarxa de llocs de meteo:

Template documentation
and downloads

And another site



Thunderstorms From: 18-09-2018 20:00 Until: 19-09-2018 10:59 warning for: Thunderstorms Level: Yellow info button
Rain From: 18-09-2018 20:00 Until: 19-09-2018 10:59 warning for: Rain Level: Yellow info button

Pagina Historial Weather Underground text

Diari Resum May 27, 2017 Unitats:  Imperial    Mètric   Tant
« Previous Dia
SegĂźent Dia »
Diari Setmana Mensual Anual Personalitzada
  Maxima: Minima: Media:
Temperatura: TemperatureC °F 15.6 °F 21.7 °F
Punt de rosada: DewpointC °F 10.3 °F 13.3 °F
Humitat: Humidity % 38 % 60 %
Wind Speed: WindSpeedKMH mph 0.0 mph 7.3 mph
RĂ fegues de vent: WindSpeedGustKMH mph - -
Vent:- - East
Pression baro: PressurehPa in 1014.8 in -
Precipitacions: 0.0 in    
Historical Graphs
 
 
Dades de taula per May 27, 2017
Temps Temperatura Punt de rosada Pression baro Vent Wind Speed RĂ fegues de vent Humitat Rainfall Rate (Hourly)
TemperatureC °F DewpointC °F PressurehPa in Calm     Humidity % HourlyPrecipMM in
00:00 17.4 °F 14.1 °F 1015.8 in ENE 4.8 mph 8.0 mph 81 % 0.0 in
00:02 17.6 °F 13.5 °F 1014.8 in ENE 5.8 mph 5.8 mph 77 % 0.0 in
00:07 17.5 °F 13.6 °F 1014.8 in NNE 7.9 mph 7.9 mph 78 % 0.0 in
00:10 17.4 °F 14.1 °F 1015.8 in NE 4.8 mph 9.7 mph 81 % 0.0 in
00:20 17.4 °F 14.1 °F 1015.8 in NE 3.2 mph 9.7 mph 81 % 0.0 in
00:30 17.4 °F 14.1 °F 1015.8 in ENE 9.7 mph 9.7 mph 81 % 0.0 in
00:40 17.2 °F 13.9 °F 1016.8 in ENE 9.7 mph 12.9 mph 81 % 0.0 in
00:50 17.1 °F 14.0 °F 1016.8 in NE 8.0 mph 9.7 mph 82 % 0.0 in
01:00 17.1 °F 14.0 °F 1015.8 in NE 8.0 mph 9.7 mph 82 % 0.0 in
01:10 17.2 °F 14.1 °F 1015.8 in NE 4.8 mph 9.7 mph 82 % 0.0 in
01:20 17.2 °F 14.1 °F 1015.8 in NE 4.8 mph 9.7 mph 82 % 0.0 in
01:30 17.2 °F 14.1 °F 1016.8 in NE 8.0 mph 9.7 mph 82 % 0.0 in
01:40 17.1 °F 14.0 °F 1017.8 in ENE 8.0 mph 9.7 mph 82 % 0.0 in
01:50 17.1 °F 14.0 °F 1017.8 in NE 4.8 mph 9.7 mph 82 % 0.0 in
02:00 17.1 °F 13.8 °F 1017.8 in NE 9.7 mph 9.7 mph 81 % 0.0 in
02:10 17.2 °F 13.9 °F 1017.8 in Calm   8.0 mph 81 % 0.0 in
02:20 17.3 °F 13.8 °F 1017.8 in NE 4.8 mph 6.4 mph 80 % 0.0 in
02:30 17.5 °F 14.0 °F 1017.8 in Calm   3.2 mph 80 % 0.0 in
02:40 17.6 °F 14.1 °F 1017.8 in NE 4.8 mph 6.4 mph 80 % 0.0 in
03:00 17.8 °F 14.1 °F 1017.8 in NE 4.8 mph 8.0 mph 79 % 0.0 in
03:10 18.0 °F 14.1 °F 1017.8 in NE 3.2 mph 6.4 mph 78 % 0.0 in
03:20 18.2 °F 14.3 °F 1017.8 in NE 3.2 mph 4.8 mph 78 % 0.0 in
03:30 18.2 °F 14.3 °F 1017.8 in ENE 3.2 mph 4.8 mph 78 % 0.0 in
03:40 18.3 °F 14.4 °F 1017.8 in ENE 4.8 mph 6.4 mph 78 % 0.0 in
03:50 18.3 °F 14.4 °F 1017.8 in NE 3.2 mph 6.4 mph 78 % 0.0 in
04:00 18.5 °F 14.6 °F 1017.8 in Calm   4.8 mph 78 % 0.0 in
04:10 18.8 °F 14.7 °F 1017.8 in Calm   3.2 mph 77 % 0.0 in
04:20 19.1 °F 14.8 °F 1017.8 in ESE 1.6 mph 3.2 mph 76 % 0.0 in
04:30 19.3 °F 14.8 °F 1017.8 in ESE 3.2 mph 3.2 mph 75 % 0.0 in
04:40 19.7 °F 15.2 °F 1017.8 in ESE 1.6 mph 3.2 mph 75 % 0.0 in
04:50 20.2 °F 15.4 °F 1017.8 in ESE 1.6 mph 8.0 mph 74 % 0.0 in
05:00 20.7 °F 15.4 °F 1017.8 in South 3.2 mph 6.4 mph 72 % 0.0 in
05:10 21.2 °F 15.7 °F 1017.8 in SSW 1.6 mph 4.8 mph 71 % 0.0 in
05:20 21.5 °F 15.8 °F 1017.8 in ENE 3.2 mph 8.0 mph 70 % 0.0 in
05:30 21.6 °F 15.7 °F 1017.8 in East 3.2 mph 8.0 mph 69 % 0.0 in
05:40 21.9 °F 15.7 °F 1017.8 in East 4.8 mph 6.4 mph 68 % 0.0 in
05:50 22.0 °F 15.6 °F 1017.8 in ENE 4.8 mph 6.4 mph 67 % 0.0 in
06:00 22.2 °F 15.3 °F 1018.8 in East 8.0 mph 9.7 mph 65 % 0.0 in
06:10 22.3 °F 15.4 °F 1018.8 in East 4.8 mph 12.9 mph 65 % 0.0 in
06:20 22.9 °F 15.5 °F 1018.8 in East 3.2 mph 12.9 mph 63 % 0.0 in
06:30 23.6 °F 15.9 °F 1018.8 in East 3.2 mph 6.4 mph 62 % 0.0 in
06:40 23.3 °F 15.6 °F 1018.8 in East 4.8 mph 14.5 mph 62 % 0.0 in
06:50 23.5 °F 15.3 °F 1018.8 in ESE 4.8 mph 12.9 mph 60 % 0.0 in
07:00 23.5 °F 15.6 °F 1018.8 in ESE 4.8 mph 8.0 mph 61 % 0.0 in
07:10 23.8 °F 15.6 °F 1018.8 in East 8.0 mph 9.7 mph 60 % 0.0 in
07:20 24.5 °F 15.7 °F 1018.8 in ESE 4.8 mph 8.0 mph 58 % 0.0 in
07:30 24.0 °F 15.2 °F 1018.8 in East 3.2 mph 11.3 mph 58 % 0.0 in
07:40 24.3 °F 15.5 °F 1018.8 in East 8.0 mph 14.5 mph 58 % 0.0 in
07:50 24.4 °F 15.6 °F 1018.8 in East 4.8 mph 12.9 mph 58 % 0.0 in
08:00 25.1 °F 15.7 °F 1018.8 in ESE 4.8 mph 6.4 mph 56 % 0.0 in
08:10 24.9 °F 15.2 °F 1019.9 in East 8.0 mph 12.9 mph 55 % 0.0 in
08:20 24.7 °F 15.1 °F 1019.9 in East 9.7 mph 12.9 mph 55 % 0.0 in
08:30 25.3 °F 15.1 °F 1018.8 in East 8.0 mph 11.3 mph 53 % 0.0 in
13:37 25.5 °F 15.2 °F 1018.8 in ESE 13.0 mph 13.0 mph 53 % 0.0 in
13:42 26.0 °F 15.4 °F 1018.8 in East 11.1 mph 11.1 mph 52 % 0.0 in
13:47 25.7 °F 15.1 °F 1018.8 in East 9.3 mph 9.3 mph 52 % 0.0 in
13:52 25.5 °F 14.9 °F 1019.9 in East 9.3 mph 9.3 mph 52 % 0.0 in
13:57 25.7 °F 14.8 °F 1019.9 in SSE 15.8 mph 15.8 mph 51 % 0.0 in
14:02 25.7 °F 14.8 °F 1019.9 in ESE 9.5 mph 9.5 mph 51 % 0.0 in
14:07 25.6 °F 14.4 °F 1018.8 in SSE 10.0 mph 10.0 mph 50 % 0.0 in
14:12 26.0 °F 14.8 °F 1018.8 in ESE 11.1 mph 11.1 mph 50 % 0.0 in
14:17 25.8 °F 14.3 °F 1018.8 in East 9.3 mph 9.5 mph 49 % 0.0 in
14:20 25.6 °F 14.1 °F 1018.8 in SSE 14.8 mph 14.8 mph 49 % 0.0 in
14:25 26.0 °F 14.4 °F 1018.8 in East 13.0 mph 13.0 mph 49 % 0.0 in
14:30 25.9 °F 14.1 °F 1018.8 in SE 11.1 mph 11.1 mph 48 % 0.0 in
14:35 25.5 °F 13.7 °F 1018.8 in ESE 11.1 mph 11.1 mph 48 % 0.0 in
14:40 25.8 °F 13.9 °F 1018.8 in ENE 11.1 mph 11.1 mph 48 % 0.0 in
14:45 25.6 °F 13.4 °F 1018.8 in East 16.7 mph 16.7 mph 47 % 0.0 in
14:50 25.7 °F 13.6 °F 1017.8 in SE 14.8 mph 14.8 mph 47 % 0.0 in
14:55 26.3 °F 13.8 °F 1017.8 in ESE 13.0 mph 13.0 mph 46 % 0.0 in
15:00 26.0 °F 13.2 °F 1017.8 in ESE 15.6 mph 15.6 mph 45 % 0.0 in
15:05 25.7 °F 12.9 °F 1017.8 in East 13.0 mph 13.0 mph 45 % 0.0 in
15:10 25.9 °F 12.7 °F 1017.8 in NNE 18.5 mph 18.5 mph 44 % 0.0 in
15:15 25.7 °F 12.2 °F 1017.8 in ESE 18.5 mph 18.5 mph 43 % 0.0 in
15:20 25.8 °F 12.3 °F 1017.8 in East 11.1 mph 11.1 mph 43 % 0.0 in
15:25 25.9 °F 12.3 °F 1017.8 in SW 13.0 mph 13.0 mph 43 % 0.0 in
15:30 26.3 °F 12.7 °F 1017.8 in SSE 13.0 mph 13.0 mph 43 % 0.0 in
15:35 26.5 °F 13.3 °F 1017.8 in ENE 9.5 mph 9.5 mph 44 % 0.0 in
15:40 26.2 °F 12.6 °F 1017.8 in ESE 9.7 mph 9.7 mph 43 % 0.0 in
15:45 26.7 °F 12.7 °F 1017.8 in SE 9.3 mph 9.3 mph 42 % 0.0 in
15:50 26.9 °F 12.9 °F 1017.8 in SE 7.4 mph 7.4 mph 42 % 0.0 in
15:55 26.9 °F 12.6 °F 1017.8 in SSE 9.3 mph 9.3 mph 41 % 0.0 in
16:00 26.5 °F 12.2 °F 1017.8 in SE 16.7 mph 16.7 mph 41 % 0.0 in
16:05 26.9 °F 12.2 °F 1017.8 in ESE 13.0 mph 13.0 mph 40 % 0.0 in
16:10 26.2 °F 10.8 °F 1017.8 in SE 16.7 mph 16.7 mph 38 % 0.0 in
16:15 26.2 °F 11.6 °F 1017.8 in SSE 11.1 mph 11.1 mph 40 % 0.0 in
16:20 26.3 °F 11.6 °F 1017.8 in SE 13.0 mph 13.0 mph 40 % 0.0 in
16:25 26.1 °F 11.1 °F 1017.8 in ENE 16.7 mph 16.7 mph 39 % 0.0 in
16:30 26.1 °F 11.1 °F 1017.8 in SE 16.7 mph 16.7 mph 39 % 0.0 in
16:35 25.7 °F 10.3 °F 1017.8 in ESE 14.0 mph 14.0 mph 38 % 0.0 in
16:40 25.9 °F 10.9 °F 1017.8 in ESE 11.1 mph 11.1 mph 39 % 0.0 in
16:45 25.9 °F 10.5 °F 1017.8 in ESE 16.9 mph 16.9 mph 38 % 0.0 in
16:55 26.0 °F 11.3 °F 1016.8 in East 13.0 mph 13.0 mph 40 % 0.0 in
17:00 26.1 °F 11.8 °F 1016.8 in SSE 14.8 mph 14.8 mph 41 % 0.0 in
17:05 26.2 °F 12.3 °F 1016.8 in ESE 14.8 mph 14.8 mph 42 % 0.0 in
17:10 26.0 °F 11.7 °F 1016.8 in ESE 12.2 mph 12.2 mph 41 % 0.0 in
17:15 26.0 °F 12.1 °F 1016.8 in ENE 18.5 mph 18.5 mph 42 % 0.0 in
17:20 26.0 °F 11.7 °F 1016.8 in East 13.0 mph 13.0 mph 41 % 0.0 in
17:25 25.9 °F 12.0 °F 1016.8 in East 14.8 mph 14.8 mph 42 % 0.0 in
17:26 26.0 °F 12.1 °F 1016.8 in ESE 12.6 mph 12.6 mph 42 % 0.0 in
17:31 25.9 °F 12.0 °F 1016.8 in East 13.0 mph 13.0 mph 42 % 0.0 in
17:36 25.9 °F 12.0 °F 1016.8 in ESE 20.4 mph 20.4 mph 42 % 0.0 in
17:41 25.9 °F 12.0 °F 1016.8 in ESE 11.1 mph 11.1 mph 42 % 0.0 in
17:46 25.8 °F 11.6 °F 1016.8 in ESE 14.8 mph 14.8 mph 41 % 0.0 in
17:51 25.8 °F 11.9 °F 1016.8 in SE 14.8 mph 14.8 mph 42 % 0.0 in
17:56 25.6 °F 11.4 °F 1016.8 in ESE 13.0 mph 13.0 mph 41 % 0.0 in
18:01 25.6 °F 11.4 °F 1016.8 in ESE 10.0 mph 10.0 mph 41 % 0.0 in
18:06 25.6 °F 11.0 °F 1016.8 in East 11.1 mph 11.1 mph 40 % 0.0 in
18:11 25.3 °F 11.1 °F 1016.8 in ENE 20.4 mph 20.4 mph 41 % 0.0 in
18:16 25.3 °F 11.1 °F 1016.8 in ESE 13.0 mph 13.0 mph 41 % 0.0 in
18:21 25.2 °F 11.4 °F 1016.8 in ENE 14.8 mph 14.8 mph 42 % 0.0 in
18:26 24.9 °F 11.8 °F 1016.8 in ENE 14.8 mph 14.8 mph 44 % 0.0 in
18:31 24.8 °F 12.1 °F 1016.8 in SSE 18.5 mph 18.5 mph 45 % 0.0 in
18:36 24.8 °F 12.4 °F 1015.8 in ESE 10.0 mph 10.0 mph 46 % 0.0 in
18:41 24.7 °F 12.6 °F 1015.8 in SE 9.7 mph 9.7 mph 47 % 0.0 in
18:46 24.5 °F 12.4 °F 1015.8 in ESE 10.0 mph 10.0 mph 47 % 0.0 in
18:51 24.3 °F 12.3 °F 1015.8 in East 13.7 mph 13.7 mph 47 % 0.0 in
18:56 24.3 °F 12.6 °F 1015.8 in ESE 13.0 mph 13.0 mph 48 % 0.0 in
19:01 24.1 °F 12.4 °F 1015.8 in ESE 13.0 mph 13.0 mph 48 % 0.0 in
19:06 24.1 °F 12.7 °F 1015.8 in ESE 7.4 mph 7.9 mph 49 % 0.0 in
19:11 24.0 °F 12.6 °F 1015.8 in ESE 13.0 mph 13.0 mph 49 % 0.0 in
19:16 23.8 °F 12.4 °F 1015.8 in East 13.0 mph 13.0 mph 49 % 0.0 in
19:21 23.7 °F 12.7 °F 1016.8 in East 13.0 mph 13.0 mph 50 % 0.0 in
19:26 23.6 °F 12.6 °F 1016.8 in SE 13.0 mph 13.0 mph 50 % 0.0 in
19:30 18.6 °F 13.7 °F 1018.8 in Calm     73 % 0.0 in
19:31 23.6 °F 12.6 °F 1016.8 in SE 9.3 mph 9.3 mph 50 % 0.0 in
19:36 23.5 °F 12.8 °F 1016.8 in ESE 15.8 mph 15.8 mph 51 % 0.0 in
19:40 18.5 °F 13.8 °F 1018.8 in NNE 1.6 mph   74 % 0.0 in
19:41 23.4 °F 12.7 °F 1016.8 in NNE 9.3 mph 9.3 mph 51 % 0.0 in
19:46 23.2 °F 12.8 °F 1016.8 in ENE 11.9 mph 11.9 mph 52 % 0.0 in
19:50 18.5 °F 13.8 °F 1018.8 in Calm   3.2 mph 74 % 0.0 in
19:51 22.9 °F 13.1 °F 1016.8 in East 14.8 mph 14.8 mph 54 % 0.0 in
19:56 22.9 °F 13.1 °F 1016.8 in ENE 10.3 mph 10.3 mph 54 % 0.0 in
20:00 18.4 °F 13.7 °F 1018.8 in NNE 1.6 mph 3.2 mph 74 % 0.0 in
20:01 22.7 °F 13.2 °F 1016.8 in ENE 9.3 mph 9.3 mph 55 % 0.0 in
20:06 22.7 °F 13.2 °F 1017.8 in East 5.8 mph 5.8 mph 55 % 0.0 in
20:10 18.3 °F 13.8 °F 1018.8 in Calm   3.2 mph 75 % 0.0 in
20:11 22.5 °F 13.3 °F 1017.8 in ENE 9.3 mph 9.3 mph 56 % 0.0 in
20:16 22.4 °F 13.2 °F 1017.8 in ENE 11.1 mph 11.1 mph 56 % 0.0 in
20:20 18.2 °F 13.7 °F 1018.8 in Calm   1.6 mph 75 % 0.0 in
20:21 22.3 °F 13.6 °F 1017.8 in ESE 7.4 mph 7.4 mph 58 % 0.0 in
20:23 22.2 °F 13.3 °F 1017.8 in NNE 7.4 mph 7.4 mph 57 % 0.0 in
20:28 22.1 °F 13.2 °F 1017.8 in ESE 11.1 mph 11.1 mph 57 % 0.0 in
20:30 18.0 °F 13.5 °F 1018.8 in NE 1.6 mph 1.6 mph 75 % 0.0 in
20:33 22.0 °F 13.1 °F 1017.8 in ESE 7.4 mph 7.4 mph 57 % 0.0 in
20:38 21.9 °F 13.3 °F 1017.8 in ESE 7.4 mph 7.4 mph 58 % 0.0 in
20:40 18.0 °F 13.7 °F 1018.8 in Calm   1.6 mph 76 % 0.0 in
20:43 21.8 °F 13.2 °F 1017.8 in ENE 7.4 mph 7.4 mph 58 % 0.0 in
20:48 21.7 °F 13.1 °F 1017.8 in East 7.4 mph 7.4 mph 58 % 0.0 in
20:50 17.8 °F 13.5 °F 1018.8 in Calm     76 % 0.0 in
20:53 21.6 °F 13.2 °F 1017.8 in ESE 5.6 mph 5.6 mph 59 % 0.0 in
20:58 21.5 °F 13.2 °F 1017.8 in ESE 7.9 mph 7.9 mph 59 % 0.0 in
21:00 17.7 °F 13.4 °F 1018.8 in Calm     76 % 0.0 in
21:03 21.4 °F 13.3 °F 1017.8 in ENE 5.6 mph 5.6 mph 60 % 0.0 in
21:08 21.3 °F 13.2 °F 1017.8 in East 4.7 mph 4.7 mph 60 % 0.0 in
21:10 17.5 °F 13.2 °F 1018.8 in Calm   1.6 mph 76 % 0.0 in
21:13 21.1 °F 13.3 °F 1017.8 in ESE 7.4 mph 7.4 mph 61 % 0.0 in
21:18 21.1 °F 13.6 °F 1017.8 in ESE 7.4 mph 7.4 mph 62 % 0.0 in
21:20 17.2 °F 13.1 °F 1018.8 in Calm     77 % 0.0 in
21:23 20.9 °F 13.3 °F 1017.8 in East 3.9 mph 3.9 mph 62 % 0.0 in
21:28 20.8 °F 13.3 °F 1017.8 in East 5.6 mph 5.6 mph 62 % 0.0 in
21:30 17.0 °F 12.9 °F 1018.8 in Calm     77 % 0.0 in
21:33 20.7 °F 13.4 °F 1017.8 in East 5.0 mph 5.0 mph 63 % 0.0 in
21:38 20.7 °F 13.4 °F 1018.8 in ENE 3.7 mph 3.7 mph 63 % 0.0 in
21:40 16.9 °F 13.2 °F 1018.8 in Calm     79 % 0.0 in
21:43 20.6 °F 13.3 °F 1018.8 in East 3.7 mph 3.7 mph 63 % 0.0 in
21:48 20.5 °F 13.4 °F 1018.8 in East 1.9 mph 1.9 mph 64 % 0.0 in
21:50 16.8 °F 13.1 °F 1018.8 in SW 1.6 mph 1.6 mph 79 % 0.0 in
21:53 20.4 °F 13.3 °F 1016.8 in NE 3.7 mph 3.7 mph 64 % 0.0 in
21:58 20.4 °F 13.3 °F 1016.8 in ENE 3.7 mph 3.7 mph 64 % 0.0 in
22:00 16.8 °F 13.1 °F 1018.8 in Calm   1.6 mph 79 % 0.0 in
22:03 20.3 °F 13.5 °F 1016.8 in NNE 3.7 mph 3.7 mph 65 % 0.0 in
22:08 20.2 °F 13.4 °F 1017.8 in East 1.9 mph 2.3 mph 65 % 0.0 in
22:10 16.8 °F 13.1 °F 1017.8 in ENE 1.6 mph 1.6 mph 79 % 0.0 in
22:13 20.2 °F 13.4 °F 1017.8 in NE 3.7 mph 3.7 mph 65 % 0.0 in
22:18 20.1 °F 13.6 °F 1017.8 in NE 2.6 mph   66 % 0.0 in
22:20 16.8 °F 13.1 °F 1017.8 in ENE 1.6 mph 1.6 mph 79 % 0.0 in
22:23 20.0 °F 13.4 °F 1017.8 in NE 3.7 mph 3.7 mph 66 % 0.0 in
22:28 20.0 °F 13.4 °F 1017.8 in NE 3.7 mph 3.7 mph 66 % 0.0 in
22:30 16.6 °F 12.9 °F 1018.8 in ESE 1.6 mph 3.2 mph 79 % 0.0 in
22:33 20.0 °F 13.4 °F 1017.8 in ENE 3.7 mph 3.7 mph 66 % 0.0 in
22:38 20.0 °F 13.4 °F 1017.8 in NE 3.7 mph 3.7 mph 66 % 0.0 in
22:40 16.2 °F 12.6 °F 1018.8 in Calm   3.2 mph 79 % 0.0 in
22:44 19.9 °F 13.6 °F 1017.8 in ENE 3.7 mph 3.7 mph 67 % 0.0 in
22:49 19.9 °F 13.6 °F 1017.8 in ENE 2.3 mph 2.3 mph 67 % 0.0 in
22:50 16.0 °F 12.3 °F 1018.8 in Calm   3.2 mph 79 % 0.0 in
22:54 19.8 °F 13.5 °F 1018.8 in NE 3.7 mph   67 % 0.0 in
22:59 19.8 °F 13.5 °F 1018.8 in ENE 3.7 mph 3.7 mph 67 % 0.0 in
23:00 15.8 °F 12.2 °F 1018.8 in Calm     79 % 0.0 in
23:04 19.7 °F 13.4 °F 1018.8 in NE 3.9 mph 3.9 mph 67 % 0.0 in
23:09 19.6 °F 13.6 °F 1018.8 in NNE 3.9 mph 3.9 mph 68 % 0.0 in
23:10 15.8 °F 12.3 °F 1017.8 in Calm     80 % 0.0 in
23:14 19.6 °F 13.6 °F 1018.8 in NE 1.9 mph   68 % 0.0 in
23:19 19.5 °F 13.4 °F 1018.8 in ENE 2.3 mph 2.3 mph 68 % 0.0 in
23:20 15.8 °F 12.3 °F 1017.8 in Calm     80 % 0.0 in
23:24 19.5 °F 13.4 °F 1018.8 in NE 2.3 mph 2.3 mph 68 % 0.0 in
23:29 19.4 °F 13.3 °F 1018.8 in NE 1.9 mph   68 % 0.0 in
23:30 15.7 °F 12.3 °F 1017.8 in Calm     80 % 0.0 in
23:34 19.4 °F 13.3 °F 1018.8 in NNE 3.7 mph 3.7 mph 68 % 0.0 in
23:39 19.3 °F 13.4 °F 1018.8 in NNE 3.7 mph 3.7 mph 69 % 0.0 in
23:40 15.6 °F 12.2 °F 1017.8 in Calm     80 % 0.0 in
23:44 19.2 °F 13.4 °F 1018.8 in NNE 2.3 mph 2.3 mph 69 % 0.0 in
23:49 19.1 °F 13.5 °F 1018.8 in ENE 3.7 mph 3.7 mph 70 % 0.0 in
23:50 15.6 °F 12.2 °F 1017.8 in SW 1.6 mph 3.2 mph 80 % 0.0 in
23:54 19.0 °F 13.4 °F 1018.8 in NNW 1.9 mph   70 % 0.0 in
23:59 18.9 °F 13.5 °F 1018.8 in NNE 1.9 mph   71 % 0.0 in
Meteo Sesrovires
Elogis d' Weather Underground - 1.5 mb

Guio original per  Jim McMurry - jmcmurry@mwt.net Adaptat per a la plantilla per  Wim van der Kuil - Leuven-Template.eu

Trobareu la nostra informacio del temps tambe a:

Weather Underground

AWEKAS